Airfield :
LOGIN :

Register | Disclaimer

   EN    FR    IT 

 










Legend :    VFR   Marginal VFR   IFR   Intensive IFR   Very Intensive IFR
Visi :
Ceiling :
>= 8 km
>= 3000ft
5 to 8 km
1000 to 3000 ft
1500m to 5 km
500 to 1000 ft
800 to 1500m
200 to 500 ft
< 800m
< 200 ft
Symbols :   Thunderstorms  Fog  Heavy snow  Heavy precipitations  Wind > 20 kt
SIGMETs :     Misc.  Thunderstorms  Icing  Turbulence  Mountain Waves  Volcanic Ashes






- Airport Elevation : 388 ft
- IATA code : QYR


LFQB - Troyes Barberey

CURRENT METAR :
  • 220100Z AUTO 21016KT 9999 -RA BKN014 BKN019 OVC024 10/08 Q1005

EXPIRED METARs :
  • 220030Z AUTO 21021KT 8000 -RA BKN014/// BKN019/// OVC024/// ///TCU 10/08 Q1006
  • 220000Z AUTO 21020KT 8000 -RA BKN012/// OVC018/// ///TCU 09/08 Q1007
  • 212330Z AUTO 21020KT 7000 -RA BKN013 OVC052 09/08 Q1007
  • 212300Z AUTO 21022KT 9999 -RADZ BKN014 BKN019 BKN032 09/08 Q1007
  • 212230Z AUTO 21023KT 6000 -DZ BKN014 OVC022 09/08 Q1008
  • 212200Z AUTO 21023KT 9999 -RA BKN018 BKN030 BKN040 09/08 Q1008
  • 212130Z AUTO 21023KT 9999 -RA SCT016 BKN031 BKN050 09/08 Q1009
  • 212100Z AUTO 22021KT 9000 -RA BKN018 BKN035 BKN046 09/07 Q1009
  • 212030Z AUTO 21023KT 8000 -RA BKN018 BKN030 BKN058 09/08 Q1009

TAF N/A



MET'MAP, your aeronautical weather chart ! - Copyright ORBIFLY December 2007 - Disclaimer

ORBIFLY MET'MAP TEAM :

Programming & Development : Alexandra Zaïnal
Original concept : Baudouin d'Aumeries
Technical & hardware support : Manuel Goepfert
Assistance : Marc-Olivier Méhu




SOURCES & CREDITS :

   NOAA